METAR Data
IDs: Format: Raw Decoded Include TAF

Data at: 1027 UTC 28 Jul 2021

KWVI 280953Z AUTO 23003KT 10SM OVC005 14/13 A3003 RMK AO2 SLP170 T01440133

KSNS 280953Z AUTO 10SM OVC006 14/12 A3003 RMK AO2 SLP178 T01440122 $

KMRY 281010Z AUTO 00000KT 2 1/2SM BR OVC001 15/13 A3004 RMK AO2 VIS 1 1/4V4 T01500128

KSJC 280953Z AUTO 32006KT 10SM CLR 17/14 A3001 RMK AO2 SLP163 T01720144

KSFO 280956Z 30010KT 10SM FEW002 14/12 A3002 RMK AO2 SLP164 T01390122

No METAR found for KHAF